sensor_id;sensor_type;location;lat;lon;timestamp;temperature;humidity
7708;DHT22;3896;48.758;8.888;2023-03-03T00:00:58;1.60;83.50
7708;DHT22;3896;48.758;8.888;2023-03-03T00:03:25;1.60;84.00
7708;DHT22;3896;48.758;8.888;2023-03-03T00:05:52;1.60;84.20
7708;DHT22;3896;48.758;8.888;2023-03-03T00:08:19;1.60;84.90
7708;DHT22;3896;48.758;8.888;2023-03-03T00:10:45;1.70;86.10
7708;DHT22;3896;48.758;8.888;2023-03-03T00:13:20;1.70;86.30
7708;DHT22;3896;48.758;8.888;2023-03-03T00:15:46;1.60;86.90
7708;DHT22;3896;48.758;8.888;2023-03-03T00:18:35;1.70;87.80
7708;DHT22;3896;48.758;8.888;2023-03-03T00:21:02;1.70;87.80
7708;DHT22;3896;48.758;8.888;2023-03-03T00:23:39;1.70;88.10
7708;DHT22;3896;48.758;8.888;2023-03-03T00:26:20;1.70;88.10
7708;DHT22;3896;48.758;8.888;2023-03-03T00:28:48;1.70;88.40
7708;DHT22;3896;48.758;8.888;2023-03-03T00:31:20;1.70;89.00
7708;DHT22;3896;48.758;8.888;2023-03-03T00:33:49;1.70;89.60
7708;DHT22;3896;48.758;8.888;2023-03-03T00:36:36;1.80;90.00
7708;DHT22;3896;48.758;8.888;2023-03-03T00:41:56;1.70;90.40
7708;DHT22;3896;48.758;8.888;2023-03-03T00:47:24;1.70;90.00
7708;DHT22;3896;48.758;8.888;2023-03-03T00:49:51;1.70;89.80
7708;DHT22;3896;48.758;8.888;2023-03-03T00:52:18;1.70;90.10
7708;DHT22;3896;48.758;8.888;2023-03-03T00:54:44;1.70;90.30
7708;DHT22;3896;48.758;8.888;2023-03-03T00:57:10;1.60;90.30
7708;DHT22;3896;48.758;8.888;2023-03-03T00:59:39;1.70;89.50
7708;DHT22;3896;48.758;8.888;2023-03-03T01:02:05;1.60;88.50
7708;DHT22;3896;48.758;8.888;2023-03-03T01:04:31;1.60;88.10
7708;DHT22;3896;48.758;8.888;2023-03-03T01:06:56;1.60;87.80
7708;DHT22;3896;48.758;8.888;2023-03-03T01:09:22;1.50;87.40
7708;DHT22;3896;48.758;8.888;2023-03-03T01:11:48;1.50;86.50
7708;DHT22;3896;48.758;8.888;2023-03-03T01:14:14;1.40;86.20
7708;DHT22;3896;48.758;8.888;2023-03-03T01:16:40;1.40;86.00
7708;DHT22;3896;48.758;8.888;2023-03-03T01:19:06;1.30;85.00
7708;DHT22;3896;48.758;8.888;2023-03-03T01:21:32;1.30;84.40
7708;DHT22;3896;48.758;8.888;2023-03-03T01:23:57;1.30;84.00
7708;DHT22;3896;48.758;8.888;2023-03-03T01:26:23;1.20;83.90
7708;DHT22;3896;48.758;8.888;2023-03-03T01:28:48;1.20;83.90
7708;DHT22;3896;48.758;8.888;2023-03-03T01:31:14;1.10;84.20
7708;DHT22;3896;48.758;8.888;2023-03-03T01:33:39;1.10;83.30
7708;DHT22;3896;48.758;8.888;2023-03-03T01:36:05;1.10;83.30
7708;DHT22;3896;48.758;8.888;2023-03-03T01:38:34;1.00;82.90
7708;DHT22;3896;48.758;8.888;2023-03-03T01:41:00;1.00;82.70
7708;DHT22;3896;48.758;8.888;2023-03-03T01:43:28;1.00;82.60
7708;DHT22;3896;48.758;8.888;2023-03-03T01:48:29;0.80;81.80
7708;DHT22;3896;48.758;8.888;2023-03-03T01:51:00;0.80;81.60
7708;DHT22;3896;48.758;8.888;2023-03-03T01:53:37;0.80;81.70
7708;DHT22;3896;48.758;8.888;2023-03-03T01:56:06;0.70;82.10
7708;DHT22;3896;48.758;8.888;2023-03-03T01:58:37;0.70;82.00
7708;DHT22;3896;48.758;8.888;2023-03-03T02:01:07;0.60;81.80
7708;DHT22;3896;48.758;8.888;2023-03-03T02:03:34;0.60;81.90
7708;DHT22;3896;48.758;8.888;2023-03-03T02:06:03;0.60;81.90
7708;DHT22;3896;48.758;8.888;2023-03-03T02:08:35;0.50;81.90
7708;DHT22;3896;48.758;8.888;2023-03-03T02:11:04;0.50;82.00
7708;DHT22;3896;48.758;8.888;2023-03-03T02:13:30;0.40;82.30
7708;DHT22;3896;48.758;8.888;2023-03-03T02:15:56;0.40;82.10
7708;DHT22;3896;48.758;8.888;2023-03-03T02:18:23;0.30;81.90
7708;DHT22;3896;48.758;8.888;2023-03-03T02:21:11;0.30;81.60
7708;DHT22;3896;48.758;8.888;2023-03-03T02:26:27;0.20;81.20
7708;DHT22;3896;48.758;8.888;2023-03-03T02:28:53;0.10;81.20
7708;DHT22;3896;48.758;8.888;2023-03-03T02:31:22;0.10;81.60
7708;DHT22;3896;48.758;8.888;2023-03-03T02:33:50;0.00;81.70
7708;DHT22;3896;48.758;8.888;2023-03-03T02:36:24;0.00;81.60
7708;DHT22;3896;48.758;8.888;2023-03-03T02:41:50;-0.10;81.70
7708;DHT22;3896;48.758;8.888;2023-03-03T02:44:22;-0.10;81.50
7708;DHT22;3896;48.758;8.888;2023-03-03T02:46:50;-0.20;81.40
7708;DHT22;3896;48.758;8.888;2023-03-03T02:49:20;-0.20;81.50
7708;DHT22;3896;48.758;8.888;2023-03-03T02:51:46;-0.20;81.90
7708;DHT22;3896;48.758;8.888;2023-03-03T02:54:13;-0.20;82.00
7708;DHT22;3896;48.758;8.888;2023-03-03T02:56:39;-0.30;82.00
7708;DHT22;3896;48.758;8.888;2023-03-03T02:59:05;-0.30;82.20
7708;DHT22;3896;48.758;8.888;2023-03-03T03:01:32;-0.40;82.20
7708;DHT22;3896;48.758;8.888;2023-03-03T03:04:08;-0.40;82.20
7708;DHT22;3896;48.758;8.888;2023-03-03T03:06:35;-0.40;82.00
7708;DHT22;3896;48.758;8.888;2023-03-03T03:09:01;-0.40;82.00
7708;DHT22;3896;48.758;8.888;2023-03-03T03:11:27;-0.40;82.10
7708;DHT22;3896;48.758;8.888;2023-03-03T03:13:53;-0.40;82.50
7708;DHT22;3896;48.758;8.888;2023-03-03T03:16:18;-0.50;82.60
7708;DHT22;3896;48.758;8.888;2023-03-03T03:18:44;-0.50;83.10
7708;DHT22;3896;48.758;8.888;2023-03-03T03:21:11;-0.50;83.30
7708;DHT22;3896;48.758;8.888;2023-03-03T03:23:38;-0.60;83.40
7708;DHT22;3896;48.758;8.888;2023-03-03T03:26:04;-0.60;83.70
7708;DHT22;3896;48.758;8.888;2023-03-03T03:28:30;-0.60;84.70
7708;DHT22;3896;48.758;8.888;2023-03-03T03:30:56;-0.60;85.50
7708;DHT22;3896;48.758;8.888;2023-03-03T03:33:22;-0.60;85.10
7708;DHT22;3896;48.758;8.888;2023-03-03T03:35:48;-0.70;85.20
7708;DHT22;3896;48.758;8.888;2023-03-03T03:38:15;-0.60;85.80
7708;DHT22;3896;48.758;8.888;2023-03-03T03:40:41;-0.60;86.40
7708;DHT22;3896;48.758;8.888;2023-03-03T03:43:07;-0.60;87.20
7708;DHT22;3896;48.758;8.888;2023-03-03T03:45:32;-0.60;88.50
7708;DHT22;3896;48.758;8.888;2023-03-03T03:47:58;-0.60;89.60
7708;DHT22;3896;48.758;8.888;2023-03-03T03:50:24;-0.60;90.10
7708;DHT22;3896;48.758;8.888;2023-03-03T03:52:50;-0.60;90.60
7708;DHT22;3896;48.758;8.888;2023-03-03T03:55:15;-0.60;90.90
7708;DHT22;3896;48.758;8.888;2023-03-03T03:57:41;-0.60;90.90
7708;DHT22;3896;48.758;8.888;2023-03-03T04:00:08;-0.60;90.80
7708;DHT22;3896;48.758;8.888;2023-03-03T04:02:35;-0.50;91.20
7708;DHT22;3896;48.758;8.888;2023-03-03T04:05:01;-0.50;91.50
7708;DHT22;3896;48.758;8.888;2023-03-03T04:07:26;-0.50;91.80
7708;DHT22;3896;48.758;8.888;2023-03-03T04:09:52;-0.50;92.10
7708;DHT22;3896;48.758;8.888;2023-03-03T04:12:17;-0.50;92.40
7708;DHT22;3896;48.758;8.888;2023-03-03T04:14:43;-0.40;92.70
7708;DHT22;3896;48.758;8.888;2023-03-03T04:17:18;-0.40;93.00
7708;DHT22;3896;48.758;8.888;2023-03-03T04:19:44;-0.40;93.10
7708;DHT22;3896;48.758;8.888;2023-03-03T04:22:11;-0.40;93.50
7708;DHT22;3896;48.758;8.888;2023-03-03T04:24:38;-0.30;93.70
7708;DHT22;3896;48.758;8.888;2023-03-03T04:27:04;-0.30;93.90
7708;DHT22;3896;48.758;8.888;2023-03-03T04:29:29;-0.20;93.90
7708;DHT22;3896;48.758;8.888;2023-03-03T04:31:55;-0.20;93.80
7708;DHT22;3896;48.758;8.888;2023-03-03T04:34:20;-0.20;93.70
7708;DHT22;3896;48.758;8.888;2023-03-03T04:36:46;-0.20;93.40
7708;DHT22;3896;48.758;8.888;2023-03-03T04:39:12;-0.10;93.60
7708;DHT22;3896;48.758;8.888;2023-03-03T04:41:37;-0.10;93.40
7708;DHT22;3896;48.758;8.888;2023-03-03T04:44:03;-0.10;93.20
7708;DHT22;3896;48.758;8.888;2023-03-03T04:46:28;0.00;93.60
7708;DHT22;3896;48.758;8.888;2023-03-03T04:48:54;0.00;93.50
7708;DHT22;3896;48.758;8.888;2023-03-03T04:51:20;0.00;93.40
7708;DHT22;3896;48.758;8.888;2023-03-03T04:53:45;0.00;93.60
7708;DHT22;3896;48.758;8.888;2023-03-03T04:56:11;0.10;94.30
7708;DHT22;3896;48.758;8.888;2023-03-03T04:58:37;0.10;94.50
7708;DHT22;3896;48.758;8.888;2023-03-03T05:01:02;0.10;94.40
7708;DHT22;3896;48.758;8.888;2023-03-03T05:03:28;0.10;94.30
7708;DHT22;3896;48.758;8.888;2023-03-03T05:05:54;0.20;94.40
7708;DHT22;3896;48.758;8.888;2023-03-03T05:08:19;0.20;94.30
7708;DHT22;3896;48.758;8.888;2023-03-03T05:10:45;0.20;94.40
7708;DHT22;3896;48.758;8.888;2023-03-03T05:13:10;0.30;94.50
7708;DHT22;3896;48.758;8.888;2023-03-03T05:15:39;0.30;94.60
7708;DHT22;3896;48.758;8.888;2023-03-03T05:18:05;0.30;94.50
7708;DHT22;3896;48.758;8.888;2023-03-03T05:20:30;0.30;94.60
7708;DHT22;3896;48.758;8.888;2023-03-03T05:22:56;0.40;95.30
7708;DHT22;3896;48.758;8.888;2023-03-03T05:25:23;0.40;95.50
7708;DHT22;3896;48.758;8.888;2023-03-03T05:27:49;0.40;95.30
7708;DHT22;3896;48.758;8.888;2023-03-03T05:30:15;0.50;95.40
7708;DHT22;3896;48.758;8.888;2023-03-03T05:32:41;0.50;95.50
7708;DHT22;3896;48.758;8.888;2023-03-03T05:35:06;0.50;96.00
7708;DHT22;3896;48.758;8.888;2023-03-03T05:37:32;0.50;95.70
7708;DHT22;3896;48.758;8.888;2023-03-03T05:39:59;0.60;95.70
7708;DHT22;3896;48.758;8.888;2023-03-03T05:42:25;0.60;95.60
7708;DHT22;3896;48.758;8.888;2023-03-03T05:44:50;0.60;95.40
7708;DHT22;3896;48.758;8.888;2023-03-03T05:47:16;0.70;95.30
7708;DHT22;3896;48.758;8.888;2023-03-03T05:49:41;0.70;95.20
7708;DHT22;3896;48.758;8.888;2023-03-03T05:52:07;0.70;95.30
7708;DHT22;3896;48.758;8.888;2023-03-03T05:54:33;0.70;95.20
7708;DHT22;3896;48.758;8.888;2023-03-03T05:56:59;0.80;95.20
7708;DHT22;3896;48.758;8.888;2023-03-03T05:59:25;0.80;95.20
7708;DHT22;3896;48.758;8.888;2023-03-03T06:01:50;0.80;95.20
7708;DHT22;3896;48.758;8.888;2023-03-03T06:04:16;0.80;95.30
7708;DHT22;3896;48.758;8.888;2023-03-03T06:06:41;0.90;95.70
7708;DHT22;3896;48.758;8.888;2023-03-03T06:09:07;0.90;95.70
7708;DHT22;3896;48.758;8.888;2023-03-03T06:11:32;0.90;95.70
7708;DHT22;3896;48.758;8.888;2023-03-03T06:13:58;0.90;95.90
7708;DHT22;3896;48.758;8.888;2023-03-03T06:16:24;0.90;95.80
7708;DHT22;3896;48.758;8.888;2023-03-03T06:18:49;1.00;95.70
7708;DHT22;3896;48.758;8.888;2023-03-03T06:21:15;1.00;96.10
7708;DHT22;3896;48.758;8.888;2023-03-03T06:23:40;1.00;96.30
7708;DHT22;3896;48.758;8.888;2023-03-03T06:26:06;1.00;96.50
7708;DHT22;3896;48.758;8.888;2023-03-03T06:28:32;1.00;97.10
7708;DHT22;3896;48.758;8.888;2023-03-03T06:30:57;1.10;97.20
7708;DHT22;3896;48.758;8.888;2023-03-03T06:33:23;1.10;97.10
7708;DHT22;3896;48.758;8.888;2023-03-03T06:35:53;1.10;97.20
7708;DHT22;3896;48.758;8.888;2023-03-03T06:38:19;1.10;97.10
7708;DHT22;3896;48.758;8.888;2023-03-03T06:40:45;1.10;97.30
7708;DHT22;3896;48.758;8.888;2023-03-03T06:43:11;1.20;97.20
7708;DHT22;3896;48.758;8.888;2023-03-03T06:45:37;1.20;97.20
7708;DHT22;3896;48.758;8.888;2023-03-03T06:48:04;1.30;97.30
7708;DHT22;3896;48.758;8.888;2023-03-03T06:50:30;1.30;97.60
7708;DHT22;3896;48.758;8.888;2023-03-03T06:53:06;1.30;97.40
7708;DHT22;3896;48.758;8.888;2023-03-03T06:55:36;1.30;96.90
7708;DHT22;3896;48.758;8.888;2023-03-03T06:58:08;1.40;96.90
7708;DHT22;3896;48.758;8.888;2023-03-03T07:00:36;1.40;97.40
7708;DHT22;3896;48.758;8.888;2023-03-03T07:03:07;1.40;97.60
7708;DHT22;3896;48.758;8.888;2023-03-03T07:05:36;1.40;97.30
7708;DHT22;3896;48.758;8.888;2023-03-03T07:08:05;1.50;97.40
7708;DHT22;3896;48.758;8.888;2023-03-03T07:10:30;1.50;97.50
7708;DHT22;3896;48.758;8.888;2023-03-03T07:13:04;1.50;97.50
7708;DHT22;3896;48.758;8.888;2023-03-03T07:15:36;1.60;97.40
7708;DHT22;3896;48.758;8.888;2023-03-03T07:18:01;1.60;97.40
7708;DHT22;3896;48.758;8.888;2023-03-03T07:20:34;1.60;97.40
7708;DHT22;3896;48.758;8.888;2023-03-03T07:23:14;1.60;97.40
7708;DHT22;3896;48.758;8.888;2023-03-03T07:25:43;1.60;97.10
7708;DHT22;3896;48.758;8.888;2023-03-03T07:28:26;1.70;97.10
7708;DHT22;3896;48.758;8.888;2023-03-03T07:30:54;1.70;97.30
7708;DHT22;3896;48.758;8.888;2023-03-03T07:33:27;1.80;97.50
7708;DHT22;3896;48.758;8.888;2023-03-03T07:35:56;1.80;97.80
7708;DHT22;3896;48.758;8.888;2023-03-03T07:38:34;1.90;97.50
7708;DHT22;3896;48.758;8.888;2023-03-03T07:41:04;1.90;97.40
7708;DHT22;3896;48.758;8.888;2023-03-03T07:43:35;2.00;97.30
7708;DHT22;3896;48.758;8.888;2023-03-03T07:46:43;2.00;97.30
7708;DHT22;3896;48.758;8.888;2023-03-03T07:51:56;2.00;96.70
7708;DHT22;3896;48.758;8.888;2023-03-03T07:57:11;2.10;96.80
7708;DHT22;3896;48.758;8.888;2023-03-03T08:02:48;2.20;96.40
7708;DHT22;3896;48.758;8.888;2023-03-03T08:05:43;2.30;97.00
7708;DHT22;3896;48.758;8.888;2023-03-03T08:10:49;2.40;97.50
7708;DHT22;3896;48.758;8.888;2023-03-03T08:13:20;2.40;97.60
7708;DHT22;3896;48.758;8.888;2023-03-03T08:15:49;2.50;97.60
7708;DHT22;3896;48.758;8.888;2023-03-03T08:18:41;2.60;97.90
7708;DHT22;3896;48.758;8.888;2023-03-03T08:21:17;2.60;97.40
7708;DHT22;3896;48.758;8.888;2023-03-03T08:23:43;2.70;97.70
7708;DHT22;3896;48.758;8.888;2023-03-03T08:26:09;2.80;98.60
7708;DHT22;3896;48.758;8.888;2023-03-03T08:28:37;2.80;99.40
7708;DHT22;3896;48.758;8.888;2023-03-03T08:31:03;2.90;99.50
7708;DHT22;3896;48.758;8.888;2023-03-03T08:33:28;3.00;99.30
7708;DHT22;3896;48.758;8.888;2023-03-03T08:35:54;3.00;99.00
7708;DHT22;3896;48.758;8.888;2023-03-03T08:38:20;3.10;98.90
7708;DHT22;3896;48.758;8.888;2023-03-03T08:40:47;3.20;99.70
7708;DHT22;3896;48.758;8.888;2023-03-03T08:43:13;3.20;99.40
7708;DHT22;3896;48.758;8.888;2023-03-03T08:45:43;3.40;98.80
7708;DHT22;3896;48.758;8.888;2023-03-03T08:48:09;3.40;98.10
7708;DHT22;3896;48.758;8.888;2023-03-03T08:50:36;3.50;97.90
7708;DHT22;3896;48.758;8.888;2023-03-03T08:53:03;3.60;98.00
7708;DHT22;3896;48.758;8.888;2023-03-03T08:55:29;3.60;97.20
7708;DHT22;3896;48.758;8.888;2023-03-03T08:57:54;3.70;96.70
7708;DHT22;3896;48.758;8.888;2023-03-03T09:00:20;3.80;96.30
7708;DHT22;3896;48.758;8.888;2023-03-03T09:02:46;3.90;95.90
7708;DHT22;3896;48.758;8.888;2023-03-03T09:05:12;4.00;95.60
7708;DHT22;3896;48.758;8.888;2023-03-03T09:07:38;4.10;95.30
7708;DHT22;3896;48.758;8.888;2023-03-03T09:10:04;4.20;94.90
7708;DHT22;3896;48.758;8.888;2023-03-03T09:12:39;4.40;94.70
7708;DHT22;3896;48.758;8.888;2023-03-03T09:15:50;4.50;94.20
7708;DHT22;3896;48.758;8.888;2023-03-03T09:18:21;4.60;93.40
7708;DHT22;3896;48.758;8.888;2023-03-03T09:20:51;4.70;92.90
7708;DHT22;3896;48.758;8.888;2023-03-03T09:23:35;4.90;93.00
7708;DHT22;3896;48.758;8.888;2023-03-03T09:28:52;5.10;91.90
7708;DHT22;3896;48.758;8.888;2023-03-03T09:31:36;5.30;91.60
7708;DHT22;3896;48.758;8.888;2023-03-03T09:34:22;5.40;91.30
7708;DHT22;3896;48.758;8.888;2023-03-03T09:36:51;5.60;91.00
7708;DHT22;3896;48.758;8.888;2023-03-03T09:39:25;5.70;90.50
7708;DHT22;3896;48.758;8.888;2023-03-03T09:45:33;6.10;89.10
7708;DHT22;3896;48.758;8.888;2023-03-03T09:53:41;6.60;86.50
7708;DHT22;3896;48.758;8.888;2023-03-03T09:56:24;6.80;85.60
7708;DHT22;3896;48.758;8.888;2023-03-03T10:07:26;7.50;82.20
7708;DHT22;3896;48.758;8.888;2023-03-03T10:26:19;8.70;75.60
7708;DHT22;3896;48.758;8.888;2023-03-03T10:28:57;8.90;74.60
7708;DHT22;3896;48.758;8.888;2023-03-03T10:31:54;9.00;74.10
7708;DHT22;3896;48.758;8.888;2023-03-03T10:37:23;9.30;71.70
7708;DHT22;3896;48.758;8.888;2023-03-03T10:47:51;9.80;67.90
7708;DHT22;3896;48.758;8.888;2023-03-03T10:50:26;9.90;66.90
7708;DHT22;3896;48.758;8.888;2023-03-03T10:53:31;10.00;65.00
7708;DHT22;3896;48.758;8.888;2023-03-03T10:58:45;10.10;63.50
7708;DHT22;3896;48.758;8.888;2023-03-03T11:01:36;10.30;63.00
7708;DHT22;3896;48.758;8.888;2023-03-03T11:04:09;10.40;62.60
7708;DHT22;3896;48.758;8.888;2023-03-03T11:09:36;10.70;62.10
7708;DHT22;3896;48.758;8.888;2023-03-03T11:14:42;11.00;61.10
7708;DHT22;3896;48.758;8.888;2023-03-03T11:17:47;11.10;60.40
7708;DHT22;3896;48.758;8.888;2023-03-03T11:20:37;11.20;60.00
7708;DHT22;3896;48.758;8.888;2023-03-03T11:36:51;11.90;57.70
7708;DHT22;3896;48.758;8.888;2023-03-03T11:39:22;12.00;57.00
7708;DHT22;3896;48.758;8.888;2023-03-03T11:44:53;12.10;55.80
7708;DHT22;3896;48.758;8.888;2023-03-03T11:56:26;12.30;54.70
7708;DHT22;3896;48.758;8.888;2023-03-03T12:01:56;12.40;54.00
7708;DHT22;3896;48.758;8.888;2023-03-03T12:04:39;12.40;53.70
7708;DHT22;3896;48.758;8.888;2023-03-03T12:12:36;12.60;53.40
7708;DHT22;3896;48.758;8.888;2023-03-03T12:26:09;12.90;52.40
7708;DHT22;3896;48.758;8.888;2023-03-03T12:28:41;13.00;52.30
7708;DHT22;3896;48.758;8.888;2023-03-03T12:31:44;13.00;51.90
7708;DHT22;3896;48.758;8.888;2023-03-03T12:40:26;13.30;51.50
7708;DHT22;3896;48.758;8.888;2023-03-03T12:45:32;13.40;51.30
7708;DHT22;3896;48.758;8.888;2023-03-03T12:48:08;13.50;51.00
7708;DHT22;3896;48.758;8.888;2023-03-03T12:56:07;13.70;50.20
7708;DHT22;3896;48.758;8.888;2023-03-03T12:58:45;13.70;49.90
7708;DHT22;3896;48.758;8.888;2023-03-03T13:03:52;13.90;49.70
7708;DHT22;3896;48.758;8.888;2023-03-03T13:06:35;13.90;49.20
7708;DHT22;3896;48.758;8.888;2023-03-03T13:15:24;14.30;49.20
7708;DHT22;3896;48.758;8.888;2023-03-03T13:20:48;14.60;48.70
7708;DHT22;3896;48.758;8.888;2023-03-03T13:23:26;14.80;48.70
7708;DHT22;3896;48.758;8.888;2023-03-03T13:26:02;15.00;48.40
7708;DHT22;3896;48.758;8.888;2023-03-03T13:28:53;15.10;48.00
7708;DHT22;3896;48.758;8.888;2023-03-03T13:31:22;15.30;47.80
7708;DHT22;3896;48.758;8.888;2023-03-03T13:33:56;15.50;47.30
7708;DHT22;3896;48.758;8.888;2023-03-03T13:36:27;15.70;47.50
7708;DHT22;3896;48.758;8.888;2023-03-03T13:39:48;15.90;47.10
7708;DHT22;3896;48.758;8.888;2023-03-03T13:41:52;16.10;46.50
7708;DHT22;3896;48.758;8.888;2023-03-03T13:44:30;16.30;46.10
7708;DHT22;3896;48.758;8.888;2023-03-03T13:47:17;16.40;45.70
7708;DHT22;3896;48.758;8.888;2023-03-03T13:52:31;16.70;44.90
7708;DHT22;3896;48.758;8.888;2023-03-03T13:55:20;16.90;44.60
7708;DHT22;3896;48.758;8.888;2023-03-03T13:58:04;17.00;45.20
7708;DHT22;3896;48.758;8.888;2023-03-03T14:00:56;17.10;45.10
7708;DHT22;3896;48.758;8.888;2023-03-03T14:06:14;17.60;43.90
7708;DHT22;3896;48.758;8.888;2023-03-03T14:08:57;17.80;43.50
7708;DHT22;3896;48.758;8.888;2023-03-03T14:19:37;18.20;42.20
7708;DHT22;3896;48.758;8.888;2023-03-03T14:27:27;18.50;41.20
7708;DHT22;3896;48.758;8.888;2023-03-03T14:29:53;18.70;41.20
7708;DHT22;3896;48.758;8.888;2023-03-03T14:32:27;18.80;41.00
7708;DHT22;3896;48.758;8.888;2023-03-03T14:34:58;18.90;40.40
7708;DHT22;3896;48.758;8.888;2023-03-03T14:37:40;18.90;40.00
7708;DHT22;3896;48.758;8.888;2023-03-03T14:40:22;18.90;39.90
7708;DHT22;3896;48.758;8.888;2023-03-03T14:42:55;18.90;40.20
7708;DHT22;3896;48.758;8.888;2023-03-03T14:45:34;19.10;40.00
7708;DHT22;3896;48.758;8.888;2023-03-03T14:48:19;19.10;39.60
7708;DHT22;3896;48.758;8.888;2023-03-03T14:50:57;19.20;39.60
7708;DHT22;3896;48.758;8.888;2023-03-03T14:53:41;19.20;39.20
7708;DHT22;3896;48.758;8.888;2023-03-03T14:56:28;19.20;39.30
7708;DHT22;3896;48.758;8.888;2023-03-03T14:59:22;19.30;39.20
7708;DHT22;3896;48.758;8.888;2023-03-03T15:04:26;19.30;38.60
7708;DHT22;3896;48.758;8.888;2023-03-03T15:06:54;19.30;38.40
7708;DHT22;3896;48.758;8.888;2023-03-03T15:09:23;19.30;38.20
7708;DHT22;3896;48.758;8.888;2023-03-03T15:11:54;19.20;38.30
7708;DHT22;3896;48.758;8.888;2023-03-03T15:14:27;19.10;38.20
7708;DHT22;3896;48.758;8.888;2023-03-03T15:16:56;19.00;38.30
7708;DHT22;3896;48.758;8.888;2023-03-03T15:22:46;18.80;38.50
7708;DHT22;3896;48.758;8.888;2023-03-03T15:25:23;18.70;38.70
7708;DHT22;3896;48.758;8.888;2023-03-03T15:28:15;18.60;39.40
7708;DHT22;3896;48.758;8.888;2023-03-03T15:31:02;18.50;38.80
7708;DHT22;3896;48.758;8.888;2023-03-03T15:33:44;18.30;38.80
7708;DHT22;3896;48.758;8.888;2023-03-03T15:39:02;18.00;38.80
7708;DHT22;3896;48.758;8.888;2023-03-03T15:41:43;17.90;39.10
7708;DHT22;3896;48.758;8.888;2023-03-03T15:49:54;17.50;39.40
7708;DHT22;3896;48.758;8.888;2023-03-03T15:55:17;17.30;40.00
7708;DHT22;3896;48.758;8.888;2023-03-03T16:03:39;16.90;40.20
7708;DHT22;3896;48.758;8.888;2023-03-03T16:09:05;16.60;40.40
7708;DHT22;3896;48.758;8.888;2023-03-03T16:11:43;16.50;40.80
7708;DHT22;3896;48.758;8.888;2023-03-03T16:14:34;16.40;41.00
7708;DHT22;3896;48.758;8.888;2023-03-03T16:17:19;16.30;41.10
7708;DHT22;3896;48.758;8.888;2023-03-03T16:20:17;16.10;41.40
7708;DHT22;3896;48.758;8.888;2023-03-03T16:23:21;16.00;41.50
7708;DHT22;3896;48.758;8.888;2023-03-03T16:31:36;15.60;42.20
7708;DHT22;3896;48.758;8.888;2023-03-03T16:39:38;15.20;43.00
7708;DHT22;3896;48.758;8.888;2023-03-03T16:42:23;15.00;43.20
7708;DHT22;3896;48.758;8.888;2023-03-03T16:53:04;14.50;44.40
7708;DHT22;3896;48.758;8.888;2023-03-03T16:55:41;14.30;44.60
7708;DHT22;3896;48.758;8.888;2023-03-03T16:58:26;14.10;45.00
7708;DHT22;3896;48.758;8.888;2023-03-03T17:06:22;13.60;45.30
7708;DHT22;3896;48.758;8.888;2023-03-03T17:11:59;13.30;45.70
7708;DHT22;3896;48.758;8.888;2023-03-03T17:14:33;13.20;46.10
7708;DHT22;3896;48.758;8.888;2023-03-03T17:17:10;13.00;46.10
7708;DHT22;3896;48.758;8.888;2023-03-03T17:25:20;12.70;45.70
7708;DHT22;3896;48.758;8.888;2023-03-03T17:27:53;12.50;46.10
7708;DHT22;3896;48.758;8.888;2023-03-03T17:30:34;12.40;46.30
7708;DHT22;3896;48.758;8.888;2023-03-03T17:41:32;11.50;46.90
7708;DHT22;3896;48.758;8.888;2023-03-03T17:44:11;11.30;47.20
7708;DHT22;3896;48.758;8.888;2023-03-03T17:46:51;11.10;47.40
7708;DHT22;3896;48.758;8.888;2023-03-03T17:49:29;11.00;47.60
7708;DHT22;3896;48.758;8.888;2023-03-03T17:54:57;10.60;48.10
7708;DHT22;3896;48.758;8.888;2023-03-03T18:00:52;10.20;48.50
7708;DHT22;3896;48.758;8.888;2023-03-03T18:14:42;9.40;50.50
7708;DHT22;3896;48.758;8.888;2023-03-03T18:20:11;9.10;50.90
7708;DHT22;3896;48.758;8.888;2023-03-03T18:22:46;9.00;51.10
7708;DHT22;3896;48.758;8.888;2023-03-03T18:25:17;8.80;51.40
7708;DHT22;3896;48.758;8.888;2023-03-03T18:33:09;8.50;51.80
7708;DHT22;3896;48.758;8.888;2023-03-03T18:35:43;8.30;52.00
7708;DHT22;3896;48.758;8.888;2023-03-03T18:41:00;8.10;52.20
7708;DHT22;3896;48.758;8.888;2023-03-03T18:48:59;7.70;52.60
7708;DHT22;3896;48.758;8.888;2023-03-03T18:54:21;7.50;53.00
7708;DHT22;3896;48.758;8.888;2023-03-03T19:02:27;7.10;53.40
7708;DHT22;3896;48.758;8.888;2023-03-03T19:05:07;7.00;53.60
7708;DHT22;3896;48.758;8.888;2023-03-03T19:18:33;6.40;54.30
7708;DHT22;3896;48.758;8.888;2023-03-03T19:21:21;6.30;54.50
7708;DHT22;3896;48.758;8.888;2023-03-03T19:24:02;6.10;54.70
7708;DHT22;3896;48.758;8.888;2023-03-03T19:29:23;5.90;55.00
7708;DHT22;3896;48.758;8.888;2023-03-03T19:43:03;5.40;55.70
7708;DHT22;3896;48.758;8.888;2023-03-03T19:59:31;4.70;57.00
7708;DHT22;3896;48.758;8.888;2023-03-03T20:02:32;4.70;57.20
7708;DHT22;3896;48.758;8.888;2023-03-03T20:05:11;4.50;57.20
7708;DHT22;3896;48.758;8.888;2023-03-03T20:08:10;4.50;57.50
7708;DHT22;3896;48.758;8.888;2023-03-03T20:10:49;4.30;57.40
7708;DHT22;3896;48.758;8.888;2023-03-03T20:16:09;4.20;57.90
7708;DHT22;3896;48.758;8.888;2023-03-03T20:18:59;4.10;58.10
7708;DHT22;3896;48.758;8.888;2023-03-03T20:27:21;3.90;58.50
7708;DHT22;3896;48.758;8.888;2023-03-03T20:30:07;3.90;58.50
7708;DHT22;3896;48.758;8.888;2023-03-03T20:35:36;3.80;58.90
7708;DHT22;3896;48.758;8.888;2023-03-03T20:46:16;3.50;59.40
7708;DHT22;3896;48.758;8.888;2023-03-03T20:51:33;3.30;59.80
7708;DHT22;3896;48.758;8.888;2023-03-03T20:57:21;3.20;60.30
7708;DHT22;3896;48.758;8.888;2023-03-03T21:00:10;3.10;60.10
7708;DHT22;3896;48.758;8.888;2023-03-03T21:05:24;3.00;60.50
7708;DHT22;3896;48.758;8.888;2023-03-03T21:07:54;3.00;60.50
7708;DHT22;3896;48.758;8.888;2023-03-03T21:10:26;3.00;60.70
7708;DHT22;3896;48.758;8.888;2023-03-03T21:12:56;2.90;60.70
7708;DHT22;3896;48.758;8.888;2023-03-03T21:15:28;2.90;60.80
7708;DHT22;3896;48.758;8.888;2023-03-03T21:17:54;2.90;61.10
7708;DHT22;3896;48.758;8.888;2023-03-03T21:20:33;2.80;61.00
7708;DHT22;3896;48.758;8.888;2023-03-03T21:23:00;2.80;61.30
7708;DHT22;3896;48.758;8.888;2023-03-03T21:25:46;2.80;62.10
7708;DHT22;3896;48.758;8.888;2023-03-03T21:31:15;2.60;61.70
7708;DHT22;3896;48.758;8.888;2023-03-03T21:39:18;2.50;62.90
7708;DHT22;3896;48.758;8.888;2023-03-03T21:42:08;2.40;62.20
7708;DHT22;3896;48.758;8.888;2023-03-03T21:44:47;2.40;62.40
7708;DHT22;3896;48.758;8.888;2023-03-03T21:47:20;2.40;62.40
7708;DHT22;3896;48.758;8.888;2023-03-03T21:49:48;2.30;62.60
7708;DHT22;3896;48.758;8.888;2023-03-03T21:52:15;2.30;63.00
7708;DHT22;3896;48.758;8.888;2023-03-03T21:54:42;2.20;63.20
7708;DHT22;3896;48.758;8.888;2023-03-03T21:57:08;2.20;63.60
7708;DHT22;3896;48.758;8.888;2023-03-03T21:59:33;2.20;63.50
7708;DHT22;3896;48.758;8.888;2023-03-03T22:01:59;2.10;63.30
7708;DHT22;3896;48.758;8.888;2023-03-03T22:04:25;2.10;63.30
7708;DHT22;3896;48.758;8.888;2023-03-03T22:06:50;2.10;63.80
7708;DHT22;3896;48.758;8.888;2023-03-03T22:09:17;2.00;64.20
7708;DHT22;3896;48.758;8.888;2023-03-03T22:11:42;2.00;64.40
7708;DHT22;3896;48.758;8.888;2023-03-03T22:14:08;1.90;64.30
7708;DHT22;3896;48.758;8.888;2023-03-03T22:16:34;1.90;64.30
7708;DHT22;3896;48.758;8.888;2023-03-03T22:19:00;1.90;64.40
7708;DHT22;3896;48.758;8.888;2023-03-03T22:21:25;1.80;64.30
7708;DHT22;3896;48.758;8.888;2023-03-03T22:23:51;1.80;64.20
7708;DHT22;3896;48.758;8.888;2023-03-03T22:26:16;1.70;65.10
7708;DHT22;3896;48.758;8.888;2023-03-03T22:28:42;1.70;64.20
7708;DHT22;3896;48.758;8.888;2023-03-03T22:31:07;1.70;64.40
7708;DHT22;3896;48.758;8.888;2023-03-03T22:33:33;1.70;64.80
7708;DHT22;3896;48.758;8.888;2023-03-03T22:35:59;1.60;65.00
7708;DHT22;3896;48.758;8.888;2023-03-03T22:38:24;1.60;65.10